createdAt,value
2018-08-17T00:00:49.019Z,19.90
2018-08-17T00:03:17.231Z,17.00
2018-08-17T00:05:45.434Z,15.37
2018-08-17T00:08:13.670Z,22.80
2018-08-17T00:10:41.987Z,15.47
2018-08-17T00:13:10.227Z,14.97
2018-08-17T00:15:38.449Z,14.80
2018-08-17T00:18:06.704Z,15.03
2018-08-17T00:20:34.925Z,16.07
2018-08-17T00:23:03.181Z,16.00
2018-08-17T00:25:31.400Z,17.40
2018-08-17T00:27:59.711Z,16.37
2018-08-17T00:30:27.913Z,15.67
2018-08-17T00:32:56.148Z,19.77
2018-08-17T00:35:24.390Z,17.13
2018-08-17T00:37:52.580Z,15.77
2018-08-17T00:40:20.800Z,16.97
2018-08-17T00:42:48.990Z,18.67
2018-08-17T00:45:17.212Z,20.73
2018-08-17T00:47:45.433Z,17.93
2018-08-17T00:50:13.676Z,18.37
2018-08-17T00:52:41.898Z,18.57
2018-08-17T00:55:10.919Z,18.33
2018-08-17T00:57:39.124Z,19.87
2018-08-17T01:00:07.382Z,20.07
2018-08-17T01:02:35.587Z,20.37
2018-08-17T01:05:04.002Z,18.07
2018-08-17T01:07:32.311Z,21.23
2018-08-17T01:10:00.503Z,20.70
2018-08-17T01:12:28.688Z,17.90
2018-08-17T01:14:56.911Z,19.27
2018-08-17T01:17:25.122Z,18.43
2018-08-17T01:19:53.356Z,18.97
2018-08-17T01:22:21.584Z,17.47
2018-08-17T01:24:49.788Z,19.00
2018-08-17T01:27:17.986Z,17.83
2018-08-17T01:29:46.212Z,18.50
2018-08-17T01:32:14.450Z,18.00
2018-08-17T01:34:42.683Z,19.83
2018-08-17T01:37:10.896Z,19.30
2018-08-17T01:39:39.115Z,19.17
2018-08-17T01:42:07.352Z,18.87
2018-08-17T01:44:35.580Z,19.50
2018-08-17T01:47:03.883Z,18.83
2018-08-17T01:49:32.122Z,20.83
2018-08-17T01:52:00.425Z,20.40
2018-08-17T01:54:28.608Z,20.97
2018-08-17T01:56:56.809Z,18.20
2018-08-17T01:59:25.036Z,19.27
2018-08-17T02:01:53.273Z,19.07
2018-08-17T02:04:21.468Z,19.73
2018-08-17T02:06:50.361Z,20.83
2018-08-17T02:09:18.603Z,19.03
2018-08-17T02:11:46.837Z,23.47
2018-08-17T02:14:15.059Z,18.57
2018-08-17T02:16:43.286Z,19.40
2018-08-17T02:19:11.514Z,17.93
2018-08-17T02:21:39.707Z,18.07
2018-08-17T02:24:08.120Z,20.90
2018-08-17T02:26:36.327Z,20.37
2018-08-17T02:29:04.587Z,18.23
2018-08-17T02:31:32.825Z,18.57
2018-08-17T02:34:01.105Z,18.03
2018-08-17T02:36:29.322Z,20.03
2018-08-17T02:38:57.545Z,19.20
2018-08-17T02:41:25.740Z,21.03
2018-08-17T02:43:53.919Z,19.40
2018-08-17T02:46:22.536Z,18.43
2018-08-17T02:48:50.775Z,18.03
2018-08-17T02:51:18.957Z,19.40
2018-08-17T02:53:47.192Z,19.23
2018-08-17T02:56:15.396Z,18.97
2018-08-17T02:58:43.593Z,19.37
2018-08-17T03:01:11.938Z,18.00
2018-08-17T03:03:40.135Z,19.17
2018-08-17T03:06:08.353Z,19.13
2018-08-17T03:08:36.575Z,22.07
2018-08-17T03:11:04.838Z,20.97
2018-08-17T03:13:33.084Z,20.67
2018-08-17T03:16:01.331Z,20.43
2018-08-17T03:18:29.847Z,20.33
2018-08-17T03:20:58.017Z,21.13
2018-08-17T03:23:26.236Z,20.73
2018-08-17T03:25:54.441Z,19.77
2018-08-17T03:28:22.633Z,22.43
2018-08-17T03:30:50.873Z,21.67
2018-08-17T03:33:19.117Z,22.90
2018-08-17T03:35:47.343Z,23.00
2018-08-17T03:38:15.619Z,23.77
2018-08-17T03:40:43.764Z,24.30
2018-08-17T03:43:12.018Z,22.47
2018-08-17T03:45:40.238Z,23.20
2018-08-17T03:48:08.887Z,24.37
2018-08-17T03:50:37.077Z,22.83
2018-08-17T03:53:05.528Z,24.90
2018-08-17T03:55:33.760Z,24.07
2018-08-17T03:58:01.993Z,24.33
2018-08-17T04:00:30.221Z,24.30
2018-08-17T04:02:58.424Z,23.00
2018-08-17T04:05:26.629Z,26.10
2018-08-17T04:07:54.831Z,22.77
2018-08-17T04:10:23.029Z,22.13
2018-08-17T04:12:51.262Z,20.73
2018-08-17T04:15:19.517Z,20.87
2018-08-17T04:17:47.651Z,19.17
2018-08-17T04:20:15.884Z,21.27
2018-08-17T04:22:44.079Z,18.87
2018-08-17T04:25:12.309Z,19.50
2018-08-17T04:27:40.513Z,17.70
2018-08-17T04:30:08.749Z,16.63
2018-08-17T04:32:36.928Z,16.40
2018-08-17T04:35:05.456Z,16.03
2018-08-17T04:37:33.669Z,18.87
2018-08-17T04:40:01.905Z,15.33
2018-08-17T04:42:30.174Z,15.97
2018-08-17T04:44:58.384Z,14.20
2018-08-17T04:47:26.596Z,15.20
2018-08-17T04:49:54.808Z,19.83
2018-08-17T04:52:23.092Z,17.00
2018-08-17T04:54:51.533Z,16.03
2018-08-17T04:57:19.794Z,14.20
2018-08-17T04:59:48.403Z,15.33
2018-08-17T05:02:16.660Z,12.50
2018-08-17T05:04:44.885Z,15.80
2018-08-17T05:07:13.120Z,14.33
2018-08-17T05:09:41.313Z,14.87
2018-08-17T05:12:09.616Z,13.27
2018-08-17T05:14:38.016Z,11.70
2018-08-17T05:17:06.219Z,11.57
2018-08-17T05:19:34.440Z,11.43
2018-08-17T05:22:03.170Z,10.63
2018-08-17T05:24:31.440Z,13.20
2018-08-17T05:26:59.637Z,11.13
2018-08-17T05:29:27.816Z,10.17
2018-08-17T05:31:57.505Z,9.87
2018-08-17T05:34:25.685Z,9.63
2018-08-17T05:36:53.907Z,10.00
2018-08-17T05:39:22.093Z,9.03
2018-08-17T05:41:50.293Z,9.80
2018-08-17T05:44:18.540Z,8.50
2018-08-17T05:46:46.763Z,8.87
2018-08-17T05:49:15.051Z,9.77
2018-08-17T05:51:43.308Z,8.63
2018-08-17T05:54:11.536Z,10.93
2018-08-17T05:56:39.780Z,11.00
2018-08-17T05:59:08.203Z,8.60
2018-08-17T06:01:36.404Z,8.13
2018-08-17T06:04:04.616Z,7.80
2018-08-17T06:06:32.949Z,8.83
2018-08-17T06:09:01.140Z,9.73
2018-08-17T06:11:29.577Z,9.50
2018-08-17T06:13:57.636Z,7.70
2018-08-17T06:16:25.835Z,9.03
2018-08-17T06:18:54.068Z,8.87
2018-08-17T06:21:22.333Z,8.37
2018-08-17T06:23:50.558Z,8.10
2018-08-17T06:26:18.783Z,8.53
2018-08-17T06:28:47.014Z,10.37
2018-08-17T06:31:15.228Z,7.90
2018-08-17T06:33:43.438Z,8.10
2018-08-17T06:36:11.758Z,7.83
2018-08-17T06:38:39.928Z,8.37
2018-08-17T06:41:08.223Z,8.20
2018-08-17T06:43:36.446Z,9.30
2018-08-17T06:46:04.680Z,8.50
2018-08-17T06:48:32.949Z,10.20
2018-08-17T06:51:01.259Z,8.27
2018-08-17T06:53:29.365Z,7.83
2018-08-17T06:55:57.679Z,9.47
2018-08-17T06:58:25.876Z,8.97
2018-08-17T07:00:54.101Z,7.57
2018-08-17T07:03:22.337Z,7.50
2018-08-17T07:05:50.580Z,7.67
2018-08-17T07:08:18.781Z,9.07
2018-08-17T07:10:47.006Z,7.93
2018-08-17T07:13:15.224Z,8.47
2018-08-17T07:15:43.425Z,8.53
2018-08-17T07:18:12.011Z,12.37
2018-08-17T07:20:40.218Z,9.97
2018-08-17T07:23:08.437Z,9.73
2018-08-17T07:25:36.625Z,12.30
2018-08-17T07:28:04.907Z,9.73
2018-08-17T07:30:33.281Z,10.23
2018-08-17T07:33:01.497Z,9.97
2018-08-17T07:35:29.705Z,8.90
2018-08-17T07:37:57.981Z,11.20
2018-08-17T07:40:26.275Z,11.50
2018-08-17T07:42:54.516Z,9.83
2018-08-17T07:45:22.817Z,9.63
2018-08-17T07:47:51.076Z,9.73
2018-08-17T07:50:20.790Z,9.97
2018-08-17T07:52:49.585Z,9.23
2018-08-17T07:55:17.792Z,9.63
2018-08-17T07:57:46.029Z,10.83
2018-08-17T08:00:14.657Z,13.07
2018-08-17T08:02:42.888Z,16.43
2018-08-17T08:05:11.951Z,11.93
2018-08-17T08:07:40.281Z,16.00
2018-08-17T08:10:09.050Z,11.80
2018-08-17T08:12:37.315Z,14.60
2018-08-17T08:15:05.721Z,15.13
2018-08-17T08:17:33.991Z,13.23
2018-08-17T08:20:14.230Z,14.40
2018-08-17T08:22:42.674Z,13.80
2018-08-17T08:25:10.901Z,12.90
2018-08-17T08:27:39.181Z,14.73
2018-08-17T08:30:07.599Z,17.00
2018-08-17T08:32:35.871Z,12.90
2018-08-17T08:35:04.425Z,11.27
2018-08-17T08:37:32.625Z,12.23
2018-08-17T08:40:00.929Z,10.80
2018-08-17T08:42:29.344Z,12.37
2018-08-17T08:44:57.601Z,9.27
2018-08-17T08:47:25.868Z,9.37
2018-08-17T08:49:54.052Z,8.90
2018-08-17T08:52:22.288Z,10.40
2018-08-17T08:57:16.734Z,7.73
2018-08-17T08:59:44.926Z,7.20
2018-08-17T09:02:13.177Z,6.40
2018-08-17T09:04:41.381Z,7.63
2018-08-17T09:07:09.631Z,6.87
2018-08-17T09:09:37.804Z,7.37
2018-08-17T09:12:06.937Z,6.77
2018-08-17T09:14:35.151Z,7.07
2018-08-17T09:17:03.493Z,7.27
2018-08-17T09:19:31.950Z,7.33
2018-08-17T09:22:00.189Z,10.87
2018-08-17T09:24:28.421Z,8.33
2018-08-17T09:26:56.742Z,7.47
2018-08-17T09:29:25.172Z,7.53
2018-08-17T09:31:53.415Z,7.17
2018-08-17T09:34:21.665Z,7.60
2018-08-17T09:36:49.872Z,7.43
2018-08-17T09:39:18.084Z,8.50
2018-08-17T09:41:46.403Z,9.33
2018-08-17T09:44:14.299Z,7.12
2018-08-17T09:46:42.516Z,6.40
2018-08-17T09:49:10.765Z,6.45
2018-08-17T09:51:39.269Z,7.37
2018-08-17T09:54:08.184Z,6.40
2018-08-17T09:56:36.803Z,10.35
2018-08-17T09:59:05.392Z,7.20
2018-08-17T10:01:39.506Z,7.20
2018-08-17T10:04:13.014Z,6.20
2018-08-17T10:06:46.594Z,7.60
2018-08-17T10:09:24.020Z,6.83
2018-08-17T10:11:52.681Z,7.20
2018-08-17T10:14:21.076Z,9.78
2018-08-17T10:16:49.448Z,8.73
2018-08-17T10:19:17.733Z,9.10
2018-08-17T10:21:50.692Z,8.50
2018-08-17T10:24:19.096Z,8.85
2018-08-17T10:26:51.153Z,10.77
2018-08-17T10:29:20.353Z,8.60
2018-08-17T10:31:49.237Z,8.73
2018-08-17T10:34:18.638Z,8.37
2018-08-17T10:36:46.961Z,9.33
2018-08-17T10:39:15.916Z,10.33
2018-08-17T10:41:44.316Z,9.13
2018-08-17T10:44:12.896Z,9.40
2018-08-17T10:46:41.500Z,9.40
2018-08-17T10:49:11.292Z,9.00
2018-08-17T10:51:39.826Z,9.07
2018-08-17T10:54:08.056Z,9.10
2018-08-17T10:56:36.406Z,10.47
2018-08-17T10:59:04.636Z,11.00
2018-08-17T11:01:32.874Z,11.10
2018-08-17T11:04:01.340Z,10.53
2018-08-17T11:06:29.579Z,11.00
2018-08-17T11:08:57.905Z,11.50
2018-08-17T11:11:26.150Z,11.63
2018-08-17T11:13:54.383Z,12.87
2018-08-17T11:16:22.660Z,12.70
2018-08-17T11:18:50.927Z,14.10
2018-08-17T11:21:19.221Z,14.83
2018-08-17T11:23:47.472Z,17.80
2018-08-17T11:26:15.710Z,16.93
2018-08-17T11:28:43.947Z,17.23
2018-08-17T11:31:12.225Z,18.53
2018-08-17T11:33:40.585Z,20.97
2018-08-17T11:36:08.902Z,20.70
2018-08-17T11:38:37.178Z,22.27
2018-08-17T11:41:08.791Z,23.77
2018-08-17T11:43:37.089Z,23.30
2018-08-17T11:46:05.320Z,24.90
2018-08-17T11:48:35.025Z,27.37
2018-08-17T11:51:03.356Z,27.17
2018-08-17T11:53:31.681Z,29.10
2018-08-17T11:55:59.961Z,27.93
2018-08-17T11:58:28.207Z,27.27
2018-08-17T12:00:56.444Z,27.23
2018-08-17T12:03:24.686Z,25.20
2018-08-17T12:05:52.904Z,25.53
2018-08-17T12:08:21.216Z,25.57
2018-08-17T12:10:53.760Z,24.30
2018-08-17T12:13:21.972Z,23.77
2018-08-17T12:15:56.998Z,21.37
2018-08-17T12:18:25.734Z,20.23
2018-08-17T12:20:54.516Z,19.20
2018-08-17T12:23:22.933Z,19.20
2018-08-17T12:25:55.571Z,20.20
2018-08-17T12:28:24.562Z,19.17
2018-08-17T12:30:52.908Z,19.97
2018-08-17T12:33:21.534Z,18.20
2018-08-17T12:35:49.994Z,17.80
2018-08-17T12:38:19.138Z,15.90
2018-08-17T12:40:53.481Z,15.23
2018-08-17T12:43:25.432Z,14.77
2018-08-17T12:45:53.871Z,13.70
2018-08-17T12:48:22.096Z,12.13
2018-08-17T12:50:50.360Z,12.63
2018-08-17T12:53:19.396Z,11.33
2018-08-17T12:55:48.060Z,13.30
2018-08-17T12:58:16.560Z,15.13
2018-08-17T13:00:44.848Z,14.77
2018-08-17T13:03:13.056Z,15.03
2018-08-17T13:05:41.269Z,15.30
2018-08-17T13:08:09.716Z,16.50
2018-08-17T13:10:39.859Z,15.07
2018-08-17T13:13:09.228Z,14.77
2018-08-17T13:15:38.091Z,14.53
2018-08-17T13:18:14.513Z,14.03
2018-08-17T13:20:42.807Z,13.03
2018-08-17T13:23:11.207Z,14.07
2018-08-17T13:25:40.048Z,14.20
2018-08-17T13:28:08.262Z,15.53
2018-08-17T13:30:36.495Z,14.07
2018-08-17T13:33:04.720Z,16.60
2018-08-17T13:35:32.891Z,14.63
2018-08-17T13:38:01.101Z,13.60
2018-08-17T13:40:29.490Z,12.67
2018-08-17T13:42:57.955Z,10.53
2018-08-17T13:45:26.142Z,10.07
2018-08-17T13:47:54.365Z,10.13
2018-08-17T13:50:22.559Z,9.03
2018-08-17T13:52:51.076Z,9.10
2018-08-17T13:55:19.487Z,8.50
2018-08-17T13:57:47.651Z,8.83
2018-08-17T14:00:15.906Z,8.30
2018-08-17T14:02:44.165Z,8.60
2018-08-17T14:05:12.382Z,7.57
2018-08-17T14:07:40.621Z,7.80
2018-08-17T14:10:10.059Z,7.77
2018-08-17T14:12:38.627Z,8.37
2018-08-17T14:15:07.822Z,8.00
2018-08-17T14:17:36.445Z,8.60
2018-08-17T14:20:08.626Z,11.40
2018-08-17T14:22:37.556Z,8.90
2018-08-17T14:25:06.169Z,10.97
2018-08-17T14:27:34.446Z,10.97
2018-08-17T14:30:04.283Z,12.13
2018-08-17T14:32:32.453Z,11.90
2018-08-17T14:35:00.681Z,12.77
2018-08-17T14:37:28.887Z,12.27
2018-08-17T14:39:57.138Z,11.80
2018-08-17T14:42:25.366Z,8.43
2018-08-17T14:44:53.605Z,7.47
2018-08-17T14:47:21.903Z,9.37
2018-08-17T14:49:50.157Z,8.77
2018-08-17T14:52:18.364Z,10.00
2018-08-17T14:54:46.597Z,7.13
2018-08-17T14:57:14.848Z,7.03
2018-08-17T14:59:43.093Z,6.13
2018-08-17T15:02:11.332Z,5.73
2018-08-17T15:04:39.577Z,6.63
2018-08-17T15:07:07.769Z,6.40
2018-08-17T15:09:36.032Z,6.70
2018-08-17T15:12:04.260Z,6.30
2018-08-17T15:14:32.508Z,5.60
2018-08-17T15:17:00.720Z,5.07
2018-08-17T15:19:28.952Z,4.50
2018-08-17T15:21:57.153Z,4.40
2018-08-17T15:24:25.429Z,4.63
2018-08-17T15:26:54.077Z,4.97
2018-08-17T15:29:22.453Z,4.53
2018-08-17T15:31:50.740Z,3.57
2018-08-17T15:34:18.910Z,5.20
2018-08-17T15:36:47.198Z,4.57
2018-08-17T15:39:15.477Z,4.83
2018-08-17T15:41:47.463Z,4.10
2018-08-17T15:44:22.867Z,3.50
2018-08-17T15:46:51.199Z,4.93
2018-08-17T15:49:24.925Z,3.80
2018-08-17T15:51:53.286Z,3.20
2018-08-17T15:54:21.491Z,4.33
2018-08-17T15:56:49.821Z,3.30
2018-08-17T15:59:18.440Z,5.93
2018-08-17T16:01:47.678Z,7.10
2018-08-17T16:04:16.253Z,8.53
2018-08-17T16:06:44.527Z,5.73
2018-08-17T16:09:13.477Z,11.33
2018-08-17T16:11:41.854Z,10.43
2018-08-17T16:14:10.066Z,8.40
2018-08-17T16:16:38.337Z,8.83
2018-08-17T16:19:06.621Z,10.73
2018-08-17T16:21:35.830Z,11.03
2018-08-17T16:24:05.602Z,10.40
2018-08-17T16:26:34.185Z,11.80
2018-08-17T16:29:03.112Z,11.10
2018-08-17T16:31:37.604Z,9.60
2018-08-17T16:34:06.256Z,9.00
2018-08-17T16:36:36.640Z,9.67
2018-08-17T16:39:08.861Z,11.53
2018-08-17T16:41:37.261Z,9.57
2018-08-17T16:44:05.701Z,10.50
2018-08-17T16:46:34.107Z,7.33
2018-08-17T16:49:02.333Z,10.47
2018-08-17T16:51:30.526Z,11.30
2018-08-17T16:53:58.757Z,8.70
2018-08-17T16:56:27.048Z,8.03
2018-08-17T16:58:55.546Z,14.70
2018-08-17T17:01:23.816Z,11.70
2018-08-17T17:03:52.134Z,8.53
2018-08-17T17:06:20.394Z,9.23
2018-08-17T17:08:49.662Z,6.63
2018-08-17T17:11:17.851Z,5.80
2018-08-17T17:13:46.063Z,7.97
2018-08-17T17:16:14.469Z,6.87
2018-08-17T17:18:42.667Z,7.17
2018-08-17T17:21:10.949Z,8.20
2018-08-17T17:23:45.279Z,5.73
2018-08-17T17:26:13.934Z,9.63
2018-08-17T17:28:42.121Z,6.83
2018-08-17T17:31:15.137Z,6.03
2018-08-17T17:33:43.446Z,5.27
2018-08-17T17:36:11.660Z,6.90
2018-08-17T17:38:40.049Z,4.83
2018-08-17T17:41:08.290Z,6.63
2018-08-17T17:43:36.478Z,7.50
2018-08-17T17:46:04.708Z,6.13
2018-08-17T17:48:33.004Z,5.63
2018-08-17T17:51:01.222Z,4.67
2018-08-17T17:53:29.423Z,8.37
2018-08-17T17:55:57.620Z,5.20
2018-08-17T17:58:25.836Z,8.07
2018-08-17T18:00:59.917Z,5.80
2018-08-17T18:03:29.379Z,5.73
2018-08-17T18:06:02.470Z,6.67
2018-08-17T18:08:31.199Z,4.90
2018-08-17T18:10:59.493Z,4.90
2018-08-17T18:13:27.916Z,6.97
2018-08-17T18:15:56.173Z,5.47
2018-08-17T18:18:24.402Z,6.20
2018-08-17T18:20:52.736Z,5.90
2018-08-17T18:23:21.112Z,5.27
2018-08-17T18:25:50.196Z,7.10
2018-08-17T18:28:18.468Z,6.57
2018-08-17T18:30:47.045Z,4.73
2018-08-17T18:33:15.260Z,6.07
2018-08-17T18:35:43.448Z,5.63
2018-08-17T18:38:11.692Z,4.27
2018-08-17T18:40:39.938Z,6.33
2018-08-17T18:43:08.236Z,7.80
2018-08-17T18:45:36.494Z,7.03
2018-08-17T18:48:04.787Z,6.37
2018-08-17T18:50:32.992Z,5.97
2018-08-17T18:53:01.260Z,4.43
2018-08-17T18:55:29.669Z,7.43
2018-08-17T18:57:57.917Z,10.13
2018-08-17T19:00:26.124Z,10.17
2018-08-17T19:02:54.690Z,13.63
2018-08-17T19:05:22.921Z,12.13
2018-08-17T19:07:51.159Z,9.83
2018-08-17T19:10:19.453Z,9.30
2018-08-17T19:12:47.628Z,10.87
2018-08-17T19:15:15.850Z,11.30
2018-08-17T19:17:44.085Z,9.33
2018-08-17T19:20:13.291Z,9.67
2018-08-17T19:22:44.096Z,6.83
2018-08-17T19:25:13.398Z,6.77
2018-08-17T19:27:42.128Z,9.00
2018-08-17T19:30:23.389Z,9.50
2018-08-17T19:32:52.802Z,7.13
2018-08-17T19:35:21.013Z,7.30
2018-08-17T19:37:50.051Z,10.23
2018-08-17T19:40:18.371Z,6.73
2018-08-17T19:42:47.038Z,6.80
2018-08-17T19:45:15.305Z,8.23
2018-08-17T19:47:43.581Z,8.77
2018-08-17T19:50:11.929Z,5.77
2018-08-17T19:52:40.088Z,7.57
2018-08-17T19:55:08.337Z,11.67
2018-08-17T19:57:37.373Z,8.13
2018-08-17T20:00:08.123Z,6.77
2018-08-17T20:02:36.316Z,6.40
2018-08-17T20:05:04.739Z,7.80
2018-08-17T20:07:33.145Z,9.43
2018-08-17T20:10:01.374Z,7.37
2018-08-17T20:12:29.604Z,7.53
2018-08-17T20:14:57.844Z,8.60
2018-08-17T20:17:26.059Z,9.20
2018-08-17T20:19:54.245Z,7.83
2018-08-17T20:22:23.555Z,9.83
2018-08-17T20:24:51.806Z,6.70
2018-08-17T20:27:20.553Z,9.10
2018-08-17T20:29:48.994Z,7.77
2018-08-17T20:32:17.249Z,9.00
2018-08-17T20:34:47.118Z,7.13
2018-08-17T20:37:16.138Z,10.30
2018-08-17T20:39:45.532Z,8.47
2018-08-17T20:42:13.793Z,8.33
2018-08-17T20:44:42.029Z,7.83
2018-08-17T20:47:11.048Z,7.60
2018-08-17T20:49:39.392Z,5.63
2018-08-17T20:52:07.660Z,9.67
2018-08-17T20:54:35.888Z,9.27
2018-08-17T20:57:04.212Z,10.63
2018-08-17T20:59:33.626Z,8.73
2018-08-17T21:02:01.960Z,6.70
2018-08-17T21:04:30.169Z,12.80
2018-08-17T21:06:58.485Z,8.07
2018-08-17T21:09:26.763Z,6.93
2018-08-17T21:11:55.000Z,6.10
2018-08-17T21:14:23.191Z,6.47
2018-08-17T21:16:51.513Z,8.73
2018-08-17T21:19:27.204Z,5.30
2018-08-17T21:21:55.471Z,6.37
2018-08-17T21:24:23.753Z,7.13
2018-08-17T21:26:51.960Z,6.57
2018-08-17T21:29:20.321Z,7.63
2018-08-17T21:31:49.234Z,7.17
2018-08-17T21:34:17.447Z,7.07
2018-08-17T21:36:45.663Z,9.57
2018-08-17T21:39:16.372Z,9.33
2018-08-17T21:41:45.703Z,7.90
2018-08-17T21:44:17.021Z,7.07
2018-08-17T21:46:52.431Z,8.00
2018-08-17T21:49:21.327Z,8.00
2018-08-17T21:51:49.558Z,9.47
2018-08-17T21:54:24.491Z,5.73
2018-08-17T21:56:53.254Z,7.27
2018-08-17T21:59:21.441Z,6.63
2018-08-17T22:01:50.087Z,9.47
2018-08-17T22:04:18.663Z,8.10
2018-08-17T22:06:46.897Z,7.40
2018-08-17T22:09:25.157Z,8.13
2018-08-17T22:11:53.337Z,7.40
2018-08-17T22:14:21.552Z,9.00
2018-08-17T22:16:49.760Z,9.97
2018-08-17T22:19:29.353Z,10.13
2018-08-17T22:21:57.543Z,12.40
2018-08-17T22:24:25.829Z,9.90
2018-08-17T22:26:53.921Z,11.53
2018-08-17T22:29:22.177Z,8.97
2018-08-17T22:31:50.336Z,10.50
2018-08-17T22:34:18.573Z,8.27
2018-08-17T22:36:46.784Z,10.73
2018-08-17T22:39:14.963Z,8.87
2018-08-17T22:41:43.224Z,9.43
2018-08-17T22:44:16.784Z,8.63
2018-08-17T22:46:49.443Z,7.17
2018-08-17T22:49:17.617Z,11.43
2018-08-17T22:51:45.792Z,12.07
2018-08-17T22:54:13.991Z,9.23
2018-08-17T22:56:42.193Z,8.30
2018-08-17T22:59:10.376Z,10.43
2018-08-17T23:01:38.589Z,11.60
2018-08-17T23:04:06.873Z,12.00
2018-08-17T23:06:35.201Z,12.57
2018-08-17T23:09:03.350Z,11.80
2018-08-17T23:11:35.547Z,15.93
2018-08-17T23:14:09.583Z,7.83
2018-08-17T23:16:37.810Z,10.50
2018-08-17T23:19:06.216Z,9.30
2018-08-17T23:21:34.396Z,6.83
2018-08-17T23:24:02.597Z,9.73
2018-08-17T23:26:30.772Z,9.07
2018-08-17T23:28:59.169Z,11.43
2018-08-17T23:31:27.457Z,9.30
2018-08-17T23:33:56.082Z,9.77
2018-08-17T23:36:24.308Z,7.17
2018-08-17T23:38:52.545Z,11.03
2018-08-17T23:41:20.826Z,8.50
2018-08-17T23:43:48.986Z,8.93
2018-08-17T23:46:17.164Z,11.40
2018-08-17T23:48:45.372Z,8.20
2018-08-17T23:51:13.592Z,10.00
2018-08-17T23:53:41.809Z,6.77
2018-08-17T23:56:10.066Z,7.80
2018-08-17T23:58:38.289Z,10.67
